Time;durP1;ratioP1;P1;durP2;ratioP2;P2;SDS_P1;SDS_P2;PMS_P1;PMS_P2;Temp;Humidity;BMP_temperature;BMP_pressure;BME280_temperature;BME280_humidity;BME280_pressure;Samples;Min_cycle;Max_cycle;Signal;HPM_P1;HPM_P2
2024/03/14 00:00:30;;;;;;;;;;;;;;;9.66;100.00;101025.38;6151819;23;19921;-73
2024/03/14 00:02:57;;;;;;;;;;;;;;;9.67;100.00;101033.22;6152492;23;19949;-74
2024/03/14 00:05:22;;;;;;;;;;;;;;;9.61;100.00;101030.47;6152463;23;19920;-74
2024/03/14 00:07:47;;;;;;;;;;;;;;;9.60;100.00;101031.47;6153090;23;19920;-74
2024/03/14 00:10:12;;;;;;;;;;;;;;;9.61;100.00;101035.84;6152472;23;19917;-74
2024/03/14 00:12:37;;;;;;;;;;;;;;;9.61;100.00;101035.84;6153166;23;19913;-73
2024/03/14 00:15:03;;;;;;;;;;;;;;;9.63;100.00;101031.13;6155098;23;19916;-74
2024/03/14 00:17:29;;;;;;;;;;;;;;;9.58;100.00;101033.50;6154150;23;19913;-74
2024/03/14 00:19:55;;;;;;;;;;;;;;;9.50;100.00;101032.59;6154012;23;19919;-74
2024/03/14 00:22:21;;;;;;;;;;;;;;;9.56;100.00;101037.22;6154641;23;19920;-74
2024/03/14 00:24:47;;;;;;;;;;;;;;;9.55;100.00;101032.88;6154810;23;19913;-74
2024/03/14 00:27:13;;;;;;;;;;;;;;;9.59;100.00;101029.81;6153407;23;19982;-74
2024/03/14 00:29:38;;;;;;;;;;;;;;;9.54;100.00;101033.88;6155081;23;20335;-74
2024/03/14 00:32:03;;;;;;;;;;;;;;;9.53;100.00;101026.84;6154395;23;19983;-74
2024/03/14 00:34:29;;;;;;;;;;;;;;;9.51;100.00;101026.22;6153723;23;19912;-74
2024/03/14 00:36:55;;;;;;;;;;;;;;;9.44;100.00;101025.28;6155147;23;19912;-74
2024/03/14 00:39:21;;;;;;;;;;;;;;;9.45;100.00;101031.47;6154360;23;19988;-74
2024/03/14 00:41:47;;;;;;;;;;;;;;;9.42;100.00;101024.63;6153785;23;19913;-74
2024/03/14 00:44:13;;;;;;;;;;;;;;;9.33;100.00;101021.19;6154702;23;19920;-76
2024/03/14 00:46:38;;;;;;;;;;;;;;;9.30;100.00;101021.56;6156309;23;19913;-74
2024/03/14 00:49:03;;;;;;;;;;;;;;;9.27;100.00;101021.09;6126750;23;19920;-75
2024/03/14 00:51:28;;;;;;;;;;;;;;;9.22;100.00;101014.41;6155951;23;20315;-74
2024/03/14 00:53:54;;;;;;;;;;;;;;;9.18;100.00;101020.34;6153456;23;20308;-74
2024/03/14 00:56:19;;;;;;;;;;;;;;;9.15;100.00;101015.34;6153614;23;20281;-74
2024/03/14 00:58:45;;;;;;;;;;;;;;;9.12;100.00;101013.88;6155591;23;19913;-74
2024/03/14 01:01:10;;;;;;;;;;;;;;;9.10;100.00;101010.53;6153640;23;20218;-74
2024/03/14 01:03:36;;;;;;;;;;;;;;;9.08;100.00;101010.72;6152269;23;19976;-73
2024/03/14 01:06:01;;;;;;;;;;;;;;;9.05;100.00;101012.91;6155327;23;19912;-74
2024/03/14 01:08:26;;;;;;;;;;;;;;;9.00;100.00;101005.41;6153917;23;19928;-74
2024/03/14 01:10:52;;;;;;;;;;;;;;;8.99;100.00;101006.44;6153018;23;19916;-74
2024/03/14 01:13:17;;;;;;;;;;;;;;;8.98;100.00;101009.31;6155117;23;20353;-74
2024/03/14 01:15:44;;;;;;;;;;;;;;;9.00;100.00;101015.34;6153503;23;20479;-74
2024/03/14 01:18:09;;;;;;;;;;;;;;;8.98;100.00;101009.31;6153635;23;19913;-74
2024/03/14 01:20:34;;;;;;;;;;;;;;;9.03;100.00;101001.53;6154863;23;19920;-74
2024/03/14 01:22:59;;;;;;;;;;;;;;;9.05;100.00;101002.19;6152393;23;19917;-74
2024/03/14 01:25:25;;;;;;;;;;;;;;;9.09;100.00;101008.84;6152150;23;19928;-74
2024/03/14 01:27:50;;;;;;;;;;;;;;;9.03;100.00;101009.56;6153713;23;19913;-74
2024/03/14 01:30:16;;;;;;;;;;;;;;;9.10;100.00;101007.84;6153422;23;19913;-74
2024/03/14 01:32:41;;;;;;;;;;;;;;;9.14;100.00;101006.47;6127387;23;19913;-74
2024/03/14 01:35:09;;;;;;;;;;;;;;;9.12;100.00;101007.66;6154345;23;19939;-74
2024/03/14 01:37:34;;;;;;;;;;;;;;;9.06;100.00;101003.84;6152910;23;19917;-74
2024/03/14 01:40:01;;;;;;;;;;;;;;;9.00;100.00;100994.69;6154015;23;19913;-74
2024/03/14 01:42:27;;;;;;;;;;;;;;;8.90;100.00;100989.56;6154377;23;19971;-74
2024/03/14 01:45:00;;;;;;;;;;;;;;;8.92;100.00;100990.22;6153490;23;19929;-74
2024/03/14 01:47:25;;;;;;;;;;;;;;;8.91;100.00;100993.91;6128235;23;19944;-74
2024/03/14 01:49:50;;;;;;;;;;;;;;;8.91;100.00;100993.91;6153783;23;19929;-74
2024/03/14 01:52:15;;;;;;;;;;;;;;;8.90;100.00;100984.19;6153185;23;20210;-74
2024/03/14 01:54:41;;;;;;;;;;;;;;;8.88;100.00;100985.41;6153395;23;19920;-74
2024/03/14 01:57:06;;;;;;;;;;;;;;;8.82;100.00;100981.59;6154282;23;19968;-74
2024/03/14 01:59:32;;;;;;;;;;;;;;;8.83;100.00;100982.44;6152807;23;20296;-74
2024/03/14 02:01:57;;;;;;;;;;;;;;;8.77;100.00;100984.00;6152695;23;20241;-74
2024/03/14 02:04:27;;;;;;;;;;;;;;;8.75;100.00;100983.34;6153934;23;19988;-74
2024/03/14 02:06:52;;;;;;;;;;;;;;;8.71;100.00;100985.56;6153278;23;19923;-73
2024/03/14 02:09:22;;;;;;;;;;;;;;;8.66;100.00;100982.56;6154939;23;19947;-74
2024/03/14 02:11:47;;;;;;;;;;;;;;;8.65;100.00;100980.91;6153885;23;19913;-74
2024/03/14 02:14:13;;;;;;;;;;;;;;;8.62;100.00;100976.75;6152654;23;20003;-73
2024/03/14 02:16:38;;;;;;;;;;;;;;;8.57;100.00;100972.91;6153126;23;19988;-73
2024/03/14 02:19:03;;;;;;;;;;;;;;;8.54;100.00;100970.63;6152409;23;20148;-74
2024/03/14 02:21:28;;;;;;;;;;;;;;;8.54;100.00;100976.81;6154042;23;19919;-74
2024/03/14 02:23:54;;;;;;;;;;;;;;;8.52;100.00;100967.28;6151166;23;20232;-74
2024/03/14 02:26:19;;;;;;;;;;;;;;;8.49;100.00;100968.44;6152584;23;20417;-74
2024/03/14 02:28:44;;;;;;;;;;;;;;;8.46;100.00;100966.94;6154142;23;19917;-75
2024/03/14 02:31:09;;;;;;;;;;;;;;;8.43;100.00;100963.78;6153151;23;19925;-75
2024/03/14 02:33:35;;;;;;;;;;;;;;;8.42;100.00;100959.44;6152164;23;19917;-73
2024/03/14 02:36:00;;;;;;;;;;;;;;;8.34;100.00;100963.84;6153980;23;19923;-74
2024/03/14 02:38:25;;;;;;;;;;;;;;;8.30;100.00;100957.16;6153051;23;19913;-74
2024/03/14 02:40:53;;;;;;;;;;;;;;;8.28;100.00;100951.16;6152375;23;20006;-74
2024/03/14 02:43:18;;;;;;;;;;;;;;;8.24;100.00;100949.84;6153719;23;20344;-73
2024/03/14 02:45:44;;;;;;;;;;;;;;;8.22;100.00;100948.34;6153173;23;19913;-73
2024/03/14 02:48:10;;;;;;;;;;;;;;;8.20;100.00;100945.84;6152027;23;20284;-73
2024/03/14 02:50:35;;;;;;;;;;;;;;;8.15;100.00;100957.13;6153858;23;20007;-74
2024/03/14 02:53:04;;;;;;;;;;;;;;;8.11;100.00;100947.75;6152894;23;20353;-73
2024/03/14 02:55:29;;;;;;;;;;;;;;;8.08;100.00;100942.75;6152069;23;19916;-73
2024/03/14 02:57:55;;;;;;;;;;;;;;;8.09;100.00;100939.06;6152611;23;19992;-73
2024/03/14 03:00:22;;;;;;;;;;;;;;;8.07;100.00;100945.63;6152101;23;19912;-73
2024/03/14 03:02:47;;;;;;;;;;;;;;;8.03;100.00;100935.25;6151835;23;19912;-73
2024/03/14 03:05:12;;;;;;;;;;;;;;;8.02;100.00;100935.44;6153673;23;19912;-73
2024/03/14 03:07:37;;;;;;;;;;;;;;;7.98;100.00;100947.50;6152760;23;19920;-73
2024/03/14 03:10:06;;;;;;;;;;;;;;;7.97;100.00;100943.97;6151496;23;19913;-73
2024/03/14 03:12:31;;;;;;;;;;;;;;;7.94;100.00;100935.47;6153859;23;20361;-72
2024/03/14 03:14:57;;;;;;;;;;;;;;;7.91;100.00;100939.34;6152513;23;19951;-74
2024/03/14 03:17:22;;;;;;;;;;;;;;;7.86;100.00;100939.84;6151820;23;19912;-74
2024/03/14 03:19:49;;;;;;;;;;;;;;;7.89;100.00;100941.38;6161112;23;19933;-75
2024/03/14 03:22:17;;;;;;;;;;;;;;;7.86;100.00;100933.69;6155597;23;19927;-75
2024/03/14 03:24:42;;;;;;;;;;;;;;;7.88;100.00;100939.69;6152623;23;19944;-75
2024/03/14 03:27:13;;;;;;;;;;;;;;;7.87;100.00;100924.63;6152793;23;20306;-75
2024/03/14 03:29:39;;;;;;;;;;;;;;;7.85;100.00;100916.75;6152196;23;20631;-75
2024/03/14 03:32:04;;;;;;;;;;;;;;;7.87;100.00;100924.63;6152677;23;19996;-75
2024/03/14 03:34:29;;;;;;;;;;;;;;;7.88;100.00;100920.94;6153763;23;20245;-75
2024/03/14 03:36:54;;;;;;;;;;;;;;;7.86;100.00;100929.13;6152332;23;20253;-74
2024/03/14 03:39:19;;;;;;;;;;;;;;;7.85;100.00;100922.09;6152514;23;20241;-74
2024/03/14 03:41:46;;;;;;;;;;;;;;;7.82;100.00;100927.00;6154151;23;20270;-73
2024/03/14 03:44:11;;;;;;;;;;;;;;;7.80;100.00;100923.66;6152299;23;19919;-73
2024/03/14 03:46:41;;;;;;;;;;;;;;;7.72;100.00;100914.66;6173821;23;19920;-73
2024/03/14 03:49:07;;;;;;;;;;;;;;;7.72;100.00;100912.00;6157041;23;20338;-75
2024/03/14 03:51:33;;;;;;;;;;;;;;;7.72;100.00;100908.47;6179121;23;19965;-73
2024/03/14 03:53:58;;;;;;;;;;;;;;;7.69;100.00;100906.97;6177418;23;19913;-73
2024/03/14 03:56:26;;;;;;;;;;;;;;;7.66;100.00;100906.50;6179421;23;19913;-73
2024/03/14 03:58:55;;;;;;;;;;;;;;;7.63;100.00;100913.03;6178205;23;19913;-72
2024/03/14 04:01:22;;;;;;;;;;;;;;;7.65;100.00;100910.19;6159638;23;19913;-74
2024/03/14 04:03:47;;;;;;;;;;;;;;;7.64;100.00;100904.00;6158774;23;20144;-74
2024/03/14 04:06:13;;;;;;;;;;;;;;;7.62;100.00;100905.19;6156609;23;19913;-74
2024/03/14 04:08:38;;;;;;;;;;;;;;;7.60;100.00;100902.66;6155833;23;19916;-74
2024/03/14 04:11:07;;;;;;;;;;;;;;;7.56;100.00;100898.69;6155965;23;19913;-74
2024/03/14 04:13:32;;;;;;;;;;;;;;;7.56;100.00;100891.47;6155391;23;19924;-73
2024/03/14 04:15:58;;;;;;;;;;;;;;;7.49;100.00;100889.69;6154774;23;20244;-74
2024/03/14 04:18:23;;;;;;;;;;;;;;;7.51;100.00;100876.94;6155181;23;20232;-73
2024/03/14 04:20:48;;;;;;;;;;;;;;;7.51;100.00;100882.31;6154499;23;19912;-73
2024/03/14 04:23:14;;;;;;;;;;;;;;;7.50;100.00;100883.31;6153003;23;19919;-74
2024/03/14 04:25:39;;;;;;;;;;;;;;;7.50;100.00;100886.00;6154464;23;19917;-73
2024/03/14 04:28:07;;;;;;;;;;;;;;;7.51;100.00;100890.34;6129275;23;19916;-73
2024/03/14 04:30:32;;;;;;;;;;;;;;;7.51;100.00;100885.81;6154466;23;19913;-73
2024/03/14 04:32:58;;;;;;;;;;;;;;;7.53;100.00;100894.50;6153490;23;19948;-73
2024/03/14 04:35:24;;;;;;;;;;;;;;;7.49;100.00;100889.69;6155039;23;19974;-72
2024/03/14 04:37:51;;;;;;;;;;;;;;;7.48;100.00;100885.31;6154380;23;19967;-72
2024/03/14 04:40:17;;;;;;;;;;;;;;;7.46;100.00;100890.03;6154409;23;20317;-73
2024/03/14 04:42:42;;;;;;;;;;;;;;;7.43;100.00;100878.66;6156038;23;19963;-72
2024/03/14 04:45:09;;;;;;;;;;;;;;;7.41;100.00;100887.88;6153975;23;19920;-73
2024/03/14 04:47:34;;;;;;;;;;;;;;;7.39;100.00;100882.72;6153161;23;19916;-73
2024/03/14 04:50:00;;;;;;;;;;;;;;;7.36;100.00;100885.72;6154885;23;19920;-73
2024/03/14 04:52:31;;;;;;;;;;;;;;;7.27;100.00;100886.75;6153645;23;19920;-73
2024/03/14 04:54:57;;;;;;;;;;;;;;;7.23;100.00;100886.28;6153495;23;20276;-73
2024/03/14 04:57:22;;;;;;;;;;;;;;;7.21;100.00;100895.50;6154374;23;19936;-73
2024/03/14 04:59:48;;;;;;;;;;;;;;;7.17;100.00;100886.97;6154159;23;19916;-72
2024/03/14 05:02:14;;;;;;;;;;;;;;;7.13;100.00;100883.81;6152918;23;19917;-72
2024/03/14 05:04:39;;;;;;;;;;;;;;;7.07;100.00;100887.16;6155632;23;19934;-73
2024/03/14 05:07:04;;;;;;;;;;;;;;;7.01;100.00;100882.53;6153933;23;19976;-74
2024/03/14 05:09:29;;;;;;;;;;;;;;;6.96;100.00;100879.53;6152970;23;19917;-72
2024/03/14 05:11:56;;;;;;;;;;;;;;;6.90;100.00;100886.41;6155558;23;19913;-73
2024/03/14 05:14:21;;;;;;;;;;;;;;;6.93;100.00;100885.22;6153564;23;19923;-73
2024/03/14 05:16:50;;;;;;;;;;;;;;;6.88;100.00;100887.59;6152851;23;20380;-73
2024/03/14 05:19:16;;;;;;;;;;;;;;;6.87;100.00;100880.56;6155588;23;19916;-73
2024/03/14 05:21:43;;;;;;;;;;;;;;;6.82;100.00;100881.91;6153127;23;19912;-73
2024/03/14 05:24:08;;;;;;;;;;;;;;;6.75;100.00;100878.25;6153406;23;19927;-74
2024/03/14 05:26:34;;;;;;;;;;;;;;;6.73;100.00;100879.44;6154960;23;19913;-73
2024/03/14 05:28:59;;;;;;;;;;;;;;;6.76;100.00;100879.09;6152952;23;19913;-73
2024/03/14 05:31:25;;;;;;;;;;;;;;;6.74;100.00;100881.91;6153476;23;19912;-73
2024/03/14 05:33:51;;;;;;;;;;;;;;;6.69;100.00;100884.28;6154958;23;20344;-73
2024/03/14 05:36:16;;;;;;;;;;;;;;;6.76;100.00;100884.44;6152731;23;20316;-73
2024/03/14 05:38:42;;;;;;;;;;;;;;;6.72;100.00;100878.56;6154259;23;20321;-73
2024/03/14 05:41:07;;;;;;;;;;;;;;;6.67;100.00;100886.31;6154366;23;19923;-74
2024/03/14 05:43:34;;;;;;;;;;;;;;;6.67;100.00;100881.78;6153602;23;20321;-74
2024/03/14 05:46:02;;;;;;;;;;;;;;;6.72;100.00;100888.47;6153429;23;19948;-73
2024/03/14 05:48:27;;;;;;;;;;;;;;;6.67;100.00;100886.31;6154142;23;20321;-73
2024/03/14 05:50:52;;;;;;;;;;;;;;;6.68;100.00;100882.63;6152088;23;19917;-74
2024/03/14 05:53:18;;;;;;;;;;;;;;;6.64;100.00;100882.09;6153762;23;19927;-74
2024/03/14 05:55:43;;;;;;;;;;;;;;;6.61;100.00;100878.94;6154172;23;20038;-75
2024/03/14 05:58:08;;;;;;;;;;;;;;;6.56;100.00;100883.97;6153240;23;19912;-74
2024/03/14 06:00:34;;;;;;;;;;;;;;;6.58;100.00;100882.81;6126745;23;19912;-75
2024/03/14 06:02:59;;;;;;;;;;;;;;;6.55;100.00;100880.47;6156653;23;19912;-72
2024/03/14 06:05:24;;;;;;;;;;;;;;;6.58;100.00;100881.97;6152898;23;19913;-75
2024/03/14 06:07:53;;;;;;;;;;;;;;;6.59;100.00;100880.97;6154264;23;19917;-74
2024/03/14 06:10:18;;;;;;;;;;;;;;;6.58;100.00;100880.13;6128095;23;20309;-73
2024/03/14 06:12:45;;;;;;;;;;;;;;;6.65;100.00;100888.31;6152952;23;19960;-74
2024/03/14 06:15:12;;;;;;;;;;;;;;;6.67;100.00;100883.63;6153414;23;19913;-73
2024/03/14 06:17:37;;;;;;;;;;;;;;;6.67;100.00;100887.13;6153086;23;19940;-73
2024/03/14 06:20:07;;;;;;;;;;;;;;;6.74;100.00;100887.28;6153068;23;19913;-73
2024/03/14 06:22:34;;;;;;;;;;;;;;;6.78;100.00;100885.94;6153285;23;19917;-75
2024/03/14 06:24:59;;;;;;;;;;;;;;;6.85;100.00;100877.22;6151035;23;19916;-73
2024/03/14 06:27:24;;;;;;;;;;;;;;;6.87;100.00;100885.94;6149354;23;20390;-73
2024/03/14 06:29:51;;;;;;;;;;;;;;;6.96;100.00;100883.06;6151109;23;19943;-73
2024/03/14 06:32:16;;;;;;;;;;;;;;;7.01;100.00;100877.19;6151525;23;19913;-75
2024/03/14 06:34:44;;;;;;;;;;;;;;;7.08;100.00;100883.50;6152728;23;19919;-74
2024/03/14 06:37:09;;;;;;;;;;;;;;;7.10;100.00;100883.34;6152352;23;19924;-79
2024/03/14 06:39:37;;;;;;;;;;;;;;;7.20;100.00;100877.78;6153480;23;19917;-73
2024/03/14 06:42:03;;;;;;;;;;;;;;;7.34;100.00;100873.50;6152950;23;19974;-74
2024/03/14 06:44:28;;;;;;;;;;;;;;;7.48;100.00;100879.97;6151997;23;19999;-75
2024/03/14 06:46:54;;;;;;;;;;;;;;;7.75;100.00;100875.97;6151991;23;19920;-77
2024/03/14 06:49:19;;;;;;;;;;;;;;;7.98;100.00;100884.00;6153510;23;19924;-75
2024/03/14 06:51:45;;;;;;;;;;;;;;;8.33;100.00;100892.44;6152140;23;19991;-74
2024/03/14 06:54:13;;;;;;;;;;;;;;;8.71;100.00;100882.72;6151550;23;19920;-73
2024/03/14 06:56:38;;;;;;;;;;;;;;;9.08;100.00;100880.97;6151877;23;19916;-74
2024/03/14 06:59:06;;;;;;;;;;;;;;;9.46;100.00;100883.50;6151737;23;19951;-74
2024/03/14 07:01:32;;;;;;;;;;;;;;;9.68;100.00;100878.19;6151676;23;19912;-74
2024/03/14 07:04:01;;;;;;;;;;;;;;;10.10;100.00;100881.88;6152449;23;20306;-75
2024/03/14 07:06:26;;;;;;;;;;;;;;;10.92;98.50;100878.78;6151553;23;20329;-74
2024/03/14 07:08:57;;;;;;;;;;;;;;;11.87;91.93;100891.56;6150378;23;19913;-74
2024/03/14 07:11:25;;;;;;;;;;;;;;;12.84;85.08;100891.19;6151820;23;20305;-74
2024/03/14 07:13:50;;;;;;;;;;;;;;;13.48;81.09;100896.81;6151503;23;19965;-75
2024/03/14 07:16:16;;;;;;;;;;;;;;;14.08;77.01;100894.81;6151237;23;19984;-74
2024/03/14 07:18:41;;;;;;;;;;;;;;;14.80;72.77;100893.59;6153365;23;19913;-74
2024/03/14 07:21:06;;;;;;;;;;;;;;;15.23;69.79;100895.41;6151300;23;19958;-74
2024/03/14 07:23:33;;;;;;;;;;;;;;;15.37;68.34;100904.22;6152548;23;19919;-76
2024/03/14 07:25:58;;;;;;;;;;;;;;;15.44;68.25;100907.66;6152487;23;19917;-74
2024/03/14 07:28:24;;;;;;;;;;;;;;;15.40;67.26;100909.19;6151963;23;20337;-75
2024/03/14 07:30:49;;;;;;;;;;;;;;;15.46;67.67;100905.56;6150462;23;19913;-74
2024/03/14 07:33:14;;;;;;;;;;;;;;;15.71;65.87;100901.91;6152635;23;20000;-75
2024/03/14 07:35:44;;;;;;;;;;;;;;;15.07;68.14;100898.72;6151413;23;20270;-75
2024/03/14 07:38:10;;;;;;;;;;;;;;;15.45;67.87;100903.06;6151411;23;19932;-75
2024/03/14 07:40:36;;;;;;;;;;;;;;;15.82;66.30;100913.00;6152313;23;19947;-74
2024/03/14 07:43:03;;;;;;;;;;;;;;;16.26;64.50;100915.53;6151991;23;19940;-73
2024/03/14 07:45:29;;;;;;;;;;;;;;;16.59;62.09;100911.44;6151576;23;19939;-73
2024/03/14 07:47:54;;;;;;;;;;;;;;;16.14;64.29;100919.06;6152208;23;20285;-76
2024/03/14 07:50:19;;;;;;;;;;;;;;;15.83;64.65;100915.50;6150332;23;19956;-74
2024/03/14 07:52:44;;;;;;;;;;;;;;;15.34;66.50;100903.84;6150906;23;19916;-74
2024/03/14 07:55:16;;;;;;;;;;;;;;;15.71;66.48;100918.19;6153408;23;20044;-73
2024/03/14 07:57:41;;;;;;;;;;;;;;;16.13;64.94;100919.31;6150342;23;19928;-74
2024/03/14 08:00:14;;;;;;;;;;;;;;;16.30;62.80;100923.00;6152951;23;20015;-75
2024/03/14 08:02:42;;;;;;;;;;;;;;;16.17;63.10;100917.75;6154337;23;19912;-79
2024/03/14 08:05:07;;;;;;;;;;;;;;;16.38;63.01;100924.53;6150401;23;20388;-72
2024/03/14 08:07:33;;;;;;;;;;;;;;;16.82;61.45;100924.22;6150926;23;19995;-73
2024/03/14 08:09:58;;;;;;;;;;;;;;;16.99;59.64;100910.72;6152176;23;19931;-73
2024/03/14 08:12:24;;;;;;;;;;;;;;;17.16;59.03;100929.03;6150146;23;20017;-73
2024/03/14 08:14:49;;;;;;;;;;;;;;;17.48;58.82;100928.59;6151070;23;19972;-73
2024/03/14 08:17:14;;;;;;;;;;;;;;;17.43;57.72;100927.44;6152258;23;19913;-73
2024/03/14 08:19:40;;;;;;;;;;;;;;;17.17;58.84;100925.25;6150727;23;19916;-73
2024/03/14 08:22:06;;;;;;;;;;;;;;;17.29;58.24;100923.34;6150591;23;20009;-73
2024/03/14 08:24:42;;;;;;;;;;;;;;;17.30;58.71;100922.25;6151374;23;19913;-73
2024/03/14 08:27:10;;;;;;;;;;;;;;;17.71;56.37;100919.53;6151268;23;20012;-73
2024/03/14 08:29:36;;;;;;;;;;;;;;;18.16;54.98;100918.75;6150749;23;19912;-73
2024/03/14 08:32:03;;;;;;;;;;;;;;;17.80;57.13;100917.25;6151372;23;19912;-73
2024/03/14 08:34:28;;;;;;;;;;;;;;;17.96;55.56;100908.28;6152626;23;19917;-74
2024/03/14 08:36:55;;;;;;;;;;;;;;;17.84;56.13;100910.22;6153169;23;20281;-73
2024/03/14 08:39:22;;;;;;;;;;;;;;;17.43;57.44;100911.13;6152495;23;20317;-74
2024/03/14 08:41:47;;;;;;;;;;;;;;;17.46;58.45;100914.44;6153952;23;19967;-74
2024/03/14 08:44:12;;;;;;;;;;;;;;;17.49;58.27;100912.03;6153344;23;19995;-74
2024/03/14 08:46:37;;;;;;;;;;;;;;;17.76;57.40;100914.19;6154029;23;20253;-74
2024/03/14 08:49:03;;;;;;;;;;;;;;;17.71;57.16;100917.63;6153370;23;20263;-73
2024/03/14 08:51:28;;;;;;;;;;;;;;;18.02;56.26;100915.50;6153475;23;20356;-73
2024/03/14 08:54:08;;;;;;;;;;;;;;;18.00;56.36;100908.66;6152396;23;19919;-73
2024/03/14 08:56:35;;;;;;;;;;;;;;;18.16;55.73;100907.84;6153256;23;19948;-73
2024/03/14 08:59:00;;;;;;;;;;;;;;;18.20;54.96;100897.25;6152189;23;19921;-73
2024/03/14 09:01:25;;;;;;;;;;;;;;;17.74;56.09;100905.41;6154881;23;19988;-74
2024/03/14 09:03:51;;;;;;;;;;;;;;;17.62;57.66;100908.22;6153044;23;19955;-73
2024/03/14 09:06:16;;;;;;;;;;;;;;;17.21;58.55;100901.94;6155162;23;19916;-73
2024/03/14 09:08:43;;;;;;;;;;;;;;;17.43;58.36;100907.56;6152030;23;20233;-74
2024/03/14 09:11:08;;;;;;;;;;;;;;;16.88;60.64;100903.41;6152768;23;19921;-73
2024/03/14 09:13:36;;;;;;;;;;;;;;;17.41;58.72;100909.69;6153784;23;20326;-73
2024/03/14 09:16:01;;;;;;;;;;;;;;;17.52;58.23;100908.00;6152992;23;19916;-75
2024/03/14 09:18:27;;;;;;;;;;;;;;;17.45;60.86;100905.44;6153973;23;19913;-74
2024/03/14 09:20:55;;;;;;;;;;;;;;;18.25;55.95;100900.09;6153322;23;19919;-73
2024/03/14 09:23:21;;;;;;;;;;;;;;;18.31;55.79;100910.00;6151988;23;19975;-74
2024/03/14 09:25:46;;;;;;;;;;;;;;;17.92;56.39;100907.13;6153833;23;20338;-73
2024/03/14 09:28:11;;;;;;;;;;;;;;;17.48;58.12;100902.22;6151728;23;19916;-74
2024/03/14 09:30:37;;;;;;;;;;;;;;;17.47;58.18;100894.31;6152245;23;19947;-74
2024/03/14 09:33:02;;;;;;;;;;;;;;;17.50;57.63;100894.66;6153804;23;19917;-74
2024/03/14 09:35:28;;;;;;;;;;;;;;;17.33;58.99;100900.00;6151934;23;20391;-73
2024/03/14 09:37:57;;;;;;;;;;;;;;;16.51;61.44;100896.28;6153093;23;19919;-73
2024/03/14 09:40:25;;;;;;;;;;;;;;;16.08;63.58;100884.66;6154619;23;19913;-73
2024/03/14 09:42:56;;;;;;;;;;;;;;;16.34;63.19;100883.41;6150857;23;19940;-73
2024/03/14 09:45:22;;;;;;;;;;;;;;;16.94;61.25;100886.13;6152598;23;19919;-73
2024/03/14 09:47:47;;;;;;;;;;;;;;;17.31;58.62;100885.81;6152785;23;19952;-73
2024/03/14 09:50:17;;;;;;;;;;;;;;;17.22;59.37;100890.00;6152596;23;19971;-73
2024/03/14 09:52:43;;;;;;;;;;;;;;;17.30;60.07;100889.59;6127485;23;19988;-74
2024/03/14 09:55:09;;;;;;;;;;;;;;;17.29;58.72;100898.88;6153987;23;19916;-74
2024/03/14 09:57:36;;;;;;;;;;;;;;;16.72;60.64;100889.47;6124952;23;19917;-74
2024/03/14 10:00:02;;;;;;;;;;;;;;;16.01;64.42;100886.69;6152222;23;19991;-73
2024/03/14 10:02:28;;;;;;;;;;;;;;;15.56;66.13;100888.72;6127702;23;19913;-73
2024/03/14 10:04:55;;;;;;;;;;;;;;;15.47;67.34;100881.97;6153156;23;19912;-73
2024/03/14 10:07:21;;;;;;;;;;;;;;;15.18;68.00;100881.69;6158684;23;19917;-72
2024/03/14 10:09:47;;;;;;;;;;;;;;;14.90;69.76;100876.81;6160641;23;20241;-74
2024/03/14 10:12:14;;;;;;;;;;;;;;;14.44;72.50;100870.78;6151785;23;19924;-74
2024/03/14 10:14:42;;;;;;;;;;;;;;;14.49;72.93;100868.22;6153716;23;19928;-72
2024/03/14 10:17:07;;;;;;;;;;;;;;;14.58;73.37;100872.31;6148429;23;19920;-73
2024/03/14 10:19:35;;;;;;;;;;;;;;;14.80;73.56;100871.94;6153123;23;19912;-73
2024/03/14 10:22:03;;;;;;;;;;;;;;;14.99;71.87;100879.00;6125392;23;19936;-73
2024/03/14 10:24:31;;;;;;;;;;;;;;;15.44;70.35;100871.56;6153871;23;20254;-74
2024/03/14 10:26:57;;;;;;;;;;;;;;;15.39;69.12;100876.84;6151885;23;19935;-72
2024/03/14 10:29:25;;;;;;;;;;;;;;;15.40;70.29;100873.94;6125948;23;20329;-72
2024/03/14 10:31:51;;;;;;;;;;;;;;;15.39;70.74;100866.84;6152313;23;19919;-72
2024/03/14 10:34:16;;;;;;;;;;;;;;;15.41;70.13;100861.19;6152116;23;20317;-73
2024/03/14 10:36:41;;;;;;;;;;;;;;;15.48;69.38;100870.06;6126075;23;19923;-73
2024/03/14 10:39:08;;;;;;;;;;;;;;;16.33;67.52;100872.78;6151561;23;20241;-73
2024/03/14 10:41:33;;;;;;;;;;;;;;;16.99;64.47;100880.81;6124863;23;19995;-73
2024/03/14 10:43:59;;;;;;;;;;;;;;;17.63;61.65;100879.09;6152523;23;19967;-73
2024/03/14 10:46:24;;;;;;;;;;;;;;;17.48;60.28;100869.56;6125382;23;19919;-73
2024/03/14 10:48:49;;;;;;;;;;;;;;;16.51;63.23;100874.56;6151714;23;19988;-73
2024/03/14 10:51:15;;;;;;;;;;;;;;;15.77;67.78;100873.00;6125452;23;19916;-73
2024/03/14 10:53:40;;;;;;;;;;;;;;;15.45;68.77;100865.09;6151687;23;19919;-73
2024/03/14 10:56:07;;;;;;;;;;;;;;;15.79;68.57;100870.88;6152347;23;20016;-73
2024/03/14 10:58:33;;;;;;;;;;;;;;;16.78;64.49;100869.47;6126194;23;19931;-73
2024/03/14 11:00:59;;;;;;;;;;;;;;;17.30;63.83;100867.03;6125391;23;19932;-72
2024/03/14 11:03:24;;;;;;;;;;;;;;;17.83;60.67;100865.00;6167451;23;20474;-73
2024/03/14 11:05:50;;;;;;;;;;;;;;;18.13;59.25;100863.94;6143187;23;20089;-72
2024/03/14 11:08:16;;;;;;;;;;;;;;;18.51;57.11;100864.22;6169647;23;19928;-73
2024/03/14 11:10:41;;;;;;;;;;;;;;;18.46;57.84;100862.25;6176100;23;19915;-73
2024/03/14 11:13:11;;;;;;;;;;;;;;;18.01;58.45;100851.19;6136249;23;19920;-73
2024/03/14 11:15:37;;;;;;;;;;;;;;;17.48;60.28;100858.69;6133450;23;19908;-74
2024/03/14 11:18:05;;;;;;;;;;;;;;;17.11;61.65;100856.31;6129464;23;20329;-72
2024/03/14 11:20:32;;;;;;;;;;;;;;;17.23;61.96;100846.22;6126742;23;19963;-73
2024/03/14 11:22:57;;;;;;;;;;;;;;;18.09;59.76;100843.69;6126229;23;19912;-73
2024/03/14 11:25:23;;;;;;;;;;;;;;;18.61;58.07;100848.84;6125791;23;19991;-73
2024/03/14 11:27:49;;;;;;;;;;;;;;;19.49;53.23;100852.69;6126592;23;19913;-73
2024/03/14 11:30:19;;;;;;;;;;;;;;;19.12;54.40;100853.34;6127660;23;19920;-73
2024/03/14 11:32:49;;;;;;;;;;;;;;;19.91;53.14;100847.66;6154602;23;20248;-75
2024/03/14 11:35:28;;;;;;;;;;;;;;;20.72;50.23;100852.03;6152080;23;19921;-73
2024/03/14 11:37:53;;;;;;;;;;;;;;;20.48;48.83;100851.63;6127461;23;19936;-74
2024/03/14 11:40:20;;;;;;;;;;;;;;;19.68;51.32;100846.84;6153099;23;19921;-73
2024/03/14 11:42:51;;;;;;;;;;;;;;;19.62;52.84;100834.22;6126076;23;19924;-73
2024/03/14 11:45:16;;;;;;;;;;;;;;;19.63;53.03;100835.88;6155568;23;19981;-74
2024/03/14 11:47:42;;;;;;;;;;;;;;;19.70;52.74;100828.31;6153448;23;19967;-73
2024/03/14 11:50:08;;;;;;;;;;;;;;;19.67;50.31;100826.09;6150623;23;19945;-73
2024/03/14 11:52:36;;;;;;;;;;;;;;;19.66;51.00;100819.81;6154754;23;19950;-74
2024/03/14 11:55:06;;;;;;;;;;;;;;;20.14;50.45;100821.88;6153431;23;19972;-73
2024/03/14 11:57:33;;;;;;;;;;;;;;;20.34;50.18;100812.97;6125834;23;20245;-73
2024/03/14 12:00:04;;;;;;;;;;;;;;;21.23;46.86;100804.09;6153829;23;19923;-74
2024/03/14 12:02:29;;;;;;;;;;;;;;;21.28;45.50;100803.28;6154301;23;19920;-74
2024/03/14 12:04:54;;;;;;;;;;;;;;;21.46;45.69;100804.69;6152317;23;20326;-73
2024/03/14 12:07:20;;;;;;;;;;;;;;;21.56;45.04;100795.66;6155737;23;20264;-74
2024/03/14 12:09:45;;;;;;;;;;;;;;;21.69;45.38;100808.84;6131457;23;20550;-74
2024/03/14 12:12:11;;;;;;;;;;;;;;;22.26;44.65;100806.88;6127265;23;19971;-74
2024/03/14 12:14:36;;;;;;;;;;;;;;;22.13;43.84;100796.50;6166902;23;19912;-74
2024/03/14 12:17:03;;;;;;;;;;;;;;;21.65;45.20;100797.63;6165574;23;19925;-74
2024/03/14 12:19:28;;;;;;;;;;;;;;;21.84;43.76;100782.53;6149768;23;20699;-72
2024/03/14 12:21:57;;;;;;;;;;;;;;;22.03;43.05;100785.56;6152384;23;19917;-73
2024/03/14 12:24:23;;;;;;;;;;;;;;;21.27;44.13;100787.97;6151288;23;19923;-72
2024/03/14 12:26:49;;;;;;;;;;;;;;;20.99;46.42;100782.69;6152256;23;20003;-72
2024/03/14 12:29:14;;;;;;;;;;;;;;;20.78;46.63;100773.56;6153162;23;19912;-72